Pagina principale
METAR-TAF:

METAR-TAF

Aeroporti :

Zeltweg, Austria

Aerodromo Hinterstoisser-Zeltweg

latitudine: 47-12N, longitudine: 014-45E, altezza: 677 m

Osservazione

Il bollettino è stato emesso 1 ora e 12 minuti fa, alle 23:50 UTC
Vento 1 kt da direzioni variabili
Temperature 0°C
Umidità 93%
Pressione 998 hPa
rovesci di neve

METAR: LOXZ 162350Z VRB01KT 10KM -SHSN FEW007ST OVC100AC 00/M01 Q0998

Ora: 02:02 (01:02 UTC)

Previsione

Il bollettino è stato emesso 13 ore e 47 minuti fa, alle 11:15 UTC
Previsione valida dal 16 alle 12 UTC al 16 alle 21 UTC
Vento 12 kt da ovest/sud-ovest
Visibilità 10 km o più
Poco nuvoloso ad un'altezza di 5000 ft
Nubi sparse ad un'altezza di 10000 ft
Temporaneamente
dal 16 alle 15 UTC al 16 alle 21 UTC
Visibilità: 3000 m
Poco nuvoloso ad un'altezza di 1000 ft
Nuvoloso ad un'altezza di 3000 ft
rovesci di neve

TAF: LOXZ 161115Z 1612/1621 24012KT 9999 FEW050 SCT100 TEMPO 1615/1621 3000 -SHSN FEW010 BKN030

Osservazioni e previsioni meteorologiche di più di 4000 aeroporti (messaggi METAR e TAF).

Le stazioni disponibili sono rappresentate dai dischi gialli e rossi sulla carta.

Puntare il mouse per vedere il nome della stazione.

Clicca sopra per visualizzare le osservazioni e previsioni meteorologiche.

Per cambiare la mappa : fare clic sui pulsanti verdi con una croce nera per ingrandire, il pulsante verde con un trattino per diminuire, o sulla freccia verde per le mappe adiacenti.


METAR-TAF: